Airfield :
LOGIN :

Register | Disclaimer

   EN    FR    IT 

 










Legend :    VFR   Marginal VFR   IFR   Intensive IFR   Very Intensive IFR
Visi :
Ceiling :
>= 8 km
>= 3000ft
5 to 8 km
1000 to 3000 ft
1500m to 5 km
500 to 1000 ft
800 to 1500m
200 to 500 ft
< 800m
< 200 ft
Symbols :   Thunderstorms  Fog  Heavy snow  Heavy precipitations  Wind > 20 kt
SIGMETs :     Misc.  Thunderstorms  Icing  Turbulence  Mountain Waves  Volcanic Ashes







- Airport Elevation : 755 ft
- IATA code : DRS


EDDC - Dresden Klotzsche

CURRENT METAR :
  • 101220Z 29013KT 260V330 6000 -SHRA BKN005CB 01/01 Q1012 TEMPO 28015G25KT BKN015

EXPIRED METARs :
  • 101150Z 31018KT 270V350 5000 -SHSN BKN005CB 01/00 Q1012 BECMG BKN015
  • 101120Z 29017KT 250V320 9999 -SHRA BKN019 04/01 Q1011 TEMPO 29015G25KT
  • 101050Z 29013G24KT 250V320 9999 BKN018 04/01 Q1012 NOSIG
  • 101020Z 29014KT 250V320 9999 -RA FEW009 BKN015 03/01 Q1012 TEMPO 28015G25KT
  • 100950Z 29014KT 250V320 9999 -RA FEW013 BKN016 03/01 Q1012 TEMPO 28015G25KT

TAF TAF EDDC
Valid from the 10 at 12:00 until the 11 at 12:00 UTC


101100Z 1012/1112 28012G22KT 9999 BKN020
TEMPO 1012/1018 28020G35KT 4000 SHRAGS BKN009CB
TEMPO 1018/1106 2000 -SHSN BKN009TCU
BECMG 1103/1106 BKN010
TEMPO 1106/1112 4000 -SNRA BKN004
No reported NOTAMs for that airfield.



MET'MAP, your aeronautical weather chart ! - Copyright ORBIFLY December 2007 - Disclaimer

ORBIFLY MET'MAP TEAM :

Programming & Development : Alexandra Zaïnal
Concept & Development : Baudouin d'Aumeries
Co-Development & Prog : Marc-Olivier Méhu
Technical & hardware support : Manuel Goepfert

Contact : metmap@orbifly.com




SOURCES & CREDITS :

   NOAA